sensor_id;sensor_type;location;lat;lon;timestamp;pressure;altitude;pressure_sealevel;temperature;humidity
55733;BME280;41637;52.364;9.910;2023-09-08T00:02:24;101288.88;;;18.99;69.61
55733;BME280;41637;52.364;9.910;2023-09-08T00:04:52;101289.09;;;18.98;69.56
55733;BME280;41637;52.364;9.910;2023-09-08T00:07:20;101287.25;;;18.98;69.35
55733;BME280;41637;52.364;9.910;2023-09-08T00:09:47;101284.78;;;18.97;69.34
55733;BME280;41637;52.364;9.910;2023-09-08T00:12:14;101282.28;;;18.95;69.41
55733;BME280;41637;52.364;9.910;2023-09-08T00:14:40;101277.38;;;18.92;69.81
55733;BME280;41637;52.364;9.910;2023-09-08T00:17:07;101274.06;;;18.90;69.88
55733;BME280;41637;52.364;9.910;2023-09-08T00:19:34;101276.56;;;18.85;69.89
55733;BME280;41637;52.364;9.910;2023-09-08T00:22:02;101272.88;;;18.79;69.97
55733;BME280;41637;52.364;9.910;2023-09-08T00:24:29;101270.81;;;18.74;69.94
55733;BME280;41637;52.364;9.910;2023-09-08T00:26:56;101269.19;;;18.67;70.08
55733;BME280;41637;52.364;9.910;2023-09-08T00:29:23;101268.63;;;18.58;70.63
55733;BME280;41637;52.364;9.910;2023-09-08T00:31:50;101276.47;;;18.53;70.87
55733;BME280;41637;52.364;9.910;2023-09-08T00:34:17;101276.50;;;18.46;70.81
55733;BME280;41637;52.364;9.910;2023-09-08T00:36:44;101275.50;;;18.41;71.07
55733;BME280;41637;52.364;9.910;2023-09-08T00:39:10;101274.28;;;18.37;71.07
55733;BME280;41637;52.364;9.910;2023-09-08T00:41:37;101273.47;;;18.29;71.10
55733;BME280;41637;52.364;9.910;2023-09-08T00:44:04;101274.31;;;18.23;71.43
55733;BME280;41637;52.364;9.910;2023-09-08T00:46:31;101271.44;;;18.18;71.83
55733;BME280;41637;52.364;9.910;2023-09-08T00:48:58;101273.97;;;18.13;72.11
55733;BME280;41637;52.364;9.910;2023-09-08T00:51:25;101274.56;;;18.08;72.41
55733;BME280;41637;52.364;9.910;2023-09-08T00:53:53;101270.69;;;18.04;72.24
55733;BME280;41637;52.364;9.910;2023-09-08T00:56:20;101274.81;;;18.00;72.77
55733;BME280;41637;52.364;9.910;2023-09-08T00:58:47;101272.72;;;17.96;73.04
55733;BME280;41637;52.364;9.910;2023-09-08T01:01:14;101271.72;;;17.90;73.19
55733;BME280;41637;52.364;9.910;2023-09-08T01:03:41;101277.50;;;17.87;73.22
55733;BME280;41637;52.364;9.910;2023-09-08T01:06:08;101273.78;;;17.81;73.58
55733;BME280;41637;52.364;9.910;2023-09-08T01:08:35;101274.00;;;17.73;74.11
55733;BME280;41637;52.364;9.910;2023-09-08T01:11:03;101271.53;;;17.65;74.48
55733;BME280;41637;52.364;9.910;2023-09-08T01:13:30;101272.16;;;17.60;74.48
55733;BME280;41637;52.364;9.910;2023-09-08T01:15:56;101269.03;;;17.57;74.67
55733;BME280;41637;52.364;9.910;2023-09-08T01:18:24;101273.16;;;17.52;74.97
55733;BME280;41637;52.364;9.910;2023-09-08T01:21:05;101276.47;;;17.48;75.31
55733;BME280;41637;52.364;9.910;2023-09-08T01:26:43;101271.94;;;17.35;75.67
55733;BME280;41637;52.364;9.910;2023-09-08T01:29:10;101268.00;;;17.31;75.72
55733;BME280;41637;52.364;9.910;2023-09-08T01:31:38;101273.19;;;17.26;76.09
55733;BME280;41637;52.364;9.910;2023-09-08T01:34:05;101270.25;;;17.21;75.98
55733;BME280;41637;52.364;9.910;2023-09-08T01:36:34;101266.75;;;17.14;76.44
55733;BME280;41637;52.364;9.910;2023-09-08T01:39:02;101264.69;;;17.09;76.33
55733;BME280;41637;52.364;9.910;2023-09-08T01:41:29;101266.13;;;17.05;76.86
55733;BME280;41637;52.364;9.910;2023-09-08T01:43:59;101257.03;;;16.99;76.79
55733;BME280;41637;52.364;9.910;2023-09-08T01:46:26;101260.34;;;16.95;76.93
55733;BME280;41637;52.364;9.910;2023-09-08T01:48:52;101262.41;;;16.92;77.25
55733;BME280;41637;52.364;9.910;2023-09-08T01:51:19;101260.13;;;16.89;77.61
55733;BME280;41637;52.364;9.910;2023-09-08T01:53:46;101258.66;;;16.87;77.84
55733;BME280;41637;52.364;9.910;2023-09-08T01:56:13;101253.72;;;16.84;77.96
55733;BME280;41637;52.364;9.910;2023-09-08T01:58:40;101255.78;;;16.82;77.99
55733;BME280;41637;52.364;9.910;2023-09-08T02:01:07;101253.47;;;16.79;78.12
55733;BME280;41637;52.364;9.910;2023-09-08T02:03:34;101263.56;;;16.77;78.60
55733;BME280;41637;52.364;9.910;2023-09-08T02:06:01;101267.69;;;16.73;78.63
55733;BME280;41637;52.364;9.910;2023-09-08T02:08:28;101256.53;;;16.69;78.96
55733;BME280;41637;52.364;9.910;2023-09-08T02:10:54;101258.16;;;16.63;79.21
55733;BME280;41637;52.364;9.910;2023-09-08T02:13:22;101253.41;;;16.59;79.43
55733;BME280;41637;52.364;9.910;2023-09-08T02:15:48;101258.34;;;16.55;79.25
55733;BME280;41637;52.364;9.910;2023-09-08T02:18:15;101261.44;;;16.52;79.30
55733;BME280;41637;52.364;9.910;2023-09-08T02:20:42;101257.69;;;16.46;79.36
55733;BME280;41637;52.364;9.910;2023-09-08T02:23:09;101249.25;;;16.43;79.31
55733;BME280;41637;52.364;9.910;2023-09-08T02:25:37;101251.06;;;16.36;79.48
55733;BME280;41637;52.364;9.910;2023-09-08T02:28:04;101256.81;;;16.33;79.81
55733;BME280;41637;52.364;9.910;2023-09-08T02:30:31;101255.56;;;16.28;79.84
55733;BME280;41637;52.364;9.910;2023-09-08T02:32:59;101255.31;;;16.23;80.22
55733;BME280;41637;52.364;9.910;2023-09-08T02:35:26;101247.69;;;16.20;80.19
55733;BME280;41637;52.364;9.910;2023-09-08T02:37:55;101249.13;;;16.16;80.47
55733;BME280;41637;52.364;9.910;2023-09-08T02:40:23;101253.22;;;16.12;80.76
55733;BME280;41637;52.364;9.910;2023-09-08T02:42:50;101251.94;;;16.08;80.83
55733;BME280;41637;52.364;9.910;2023-09-08T02:45:16;101241.03;;;16.03;81.13
55733;BME280;41637;52.364;9.910;2023-09-08T02:47:43;101249.44;;;16.00;81.53
55733;BME280;41637;52.364;9.910;2023-09-08T02:50:10;101251.69;;;15.96;81.74
55733;BME280;41637;52.364;9.910;2023-09-08T02:52:37;101254.56;;;15.95;81.91
55733;BME280;41637;52.364;9.910;2023-09-08T02:55:04;101245.25;;;15.90;81.79
55733;BME280;41637;52.364;9.910;2023-09-08T02:57:31;101251.63;;;15.89;81.96
55733;BME280;41637;52.364;9.910;2023-09-08T02:59:57;101243.38;;;15.84;82.36
55733;BME280;41637;52.364;9.910;2023-09-08T03:02:25;101251.59;;;15.83;82.36
55733;BME280;41637;52.364;9.910;2023-09-08T03:04:52;101249.13;;;15.81;82.80
55733;BME280;41637;52.364;9.910;2023-09-08T03:07:20;101248.50;;;15.79;82.91
55733;BME280;41637;52.364;9.910;2023-09-08T03:09:47;101249.50;;;15.78;83.17
55733;BME280;41637;52.364;9.910;2023-09-08T03:12:14;101245.19;;;15.77;83.23
55733;BME280;41637;52.364;9.910;2023-09-08T03:14:41;101244.56;;;15.75;83.60
55733;BME280;41637;52.364;9.910;2023-09-08T03:17:08;101236.72;;;15.74;83.84
55733;BME280;41637;52.364;9.910;2023-09-08T03:19:34;101244.13;;;15.72;84.23
55733;BME280;41637;52.364;9.910;2023-09-08T03:22:02;101234.59;;;15.69;84.33
55733;BME280;41637;52.364;9.910;2023-09-08T03:24:28;101242.00;;;15.67;84.56
55733;BME280;41637;52.364;9.910;2023-09-08T03:26:55;101235.38;;;15.63;84.60
55733;BME280;41637;52.364;9.910;2023-09-08T03:29:24;101237.81;;;15.58;84.83
55733;BME280;41637;52.364;9.910;2023-09-08T03:31:51;101241.06;;;15.53;84.96
55733;BME280;41637;52.364;9.910;2023-09-08T03:34:18;101238.16;;;15.48;85.04
55733;BME280;41637;52.364;9.910;2023-09-08T03:36:49;101236.69;;;15.45;85.23
55733;BME280;41637;52.364;9.910;2023-09-08T03:39:16;101234.41;;;15.42;85.63
55733;BME280;41637;52.364;9.910;2023-09-08T03:41:46;101237.66;;;15.38;85.74
55733;BME280;41637;52.364;9.910;2023-09-08T03:44:13;101229.19;;;15.34;86.17
55733;BME280;41637;52.364;9.910;2023-09-08T03:46:39;101234.94;;;15.31;86.55
55733;BME280;41637;52.364;9.910;2023-09-08T03:49:06;101235.34;;;15.28;86.39
55733;BME280;41637;52.364;9.910;2023-09-08T03:51:34;101239.19;;;15.25;86.50
55733;BME280;41637;52.364;9.910;2023-09-08T03:54:01;101239.59;;;15.22;86.64
55733;BME280;41637;52.364;9.910;2023-09-08T03:56:29;101242.44;;;15.21;87.01
55733;BME280;41637;52.364;9.910;2023-09-08T03:58:56;101232.78;;;15.20;87.06
55733;BME280;41637;52.364;9.910;2023-09-08T04:01:23;101244.31;;;15.20;87.05
55733;BME280;41637;52.364;9.910;2023-09-08T04:03:50;101236.47;;;15.19;87.13
55733;BME280;41637;52.364;9.910;2023-09-08T04:06:17;101241.00;;;15.18;87.24
55733;BME280;41637;52.364;9.910;2023-09-08T04:08:44;101236.03;;;15.15;87.48
55733;BME280;41637;52.364;9.910;2023-09-08T04:11:11;101239.09;;;15.12;87.75
55733;BME280;41637;52.364;9.910;2023-09-08T04:13:38;101230.44;;;15.10;88.37
55733;BME280;41637;52.364;9.910;2023-09-08T04:16:05;101238.63;;;15.08;88.11
55733;BME280;41637;52.364;9.910;2023-09-08T04:18:32;101228.34;;;15.05;88.33
55733;BME280;41637;52.364;9.910;2023-09-08T04:20:59;101231.38;;;15.02;88.47
55733;BME280;41637;52.364;9.910;2023-09-08T04:23:26;101229.72;;;15.01;88.65
55733;BME280;41637;52.364;9.910;2023-09-08T04:25:53;101235.25;;;15.00;88.51
55733;BME280;41637;52.364;9.910;2023-09-08T04:28:20;101236.47;;;14.97;88.54
55733;BME280;41637;52.364;9.910;2023-09-08T04:30:46;101228.63;;;14.96;88.90
55733;BME280;41637;52.364;9.910;2023-09-08T04:33:13;101228.84;;;14.94;89.12
55733;BME280;41637;52.364;9.910;2023-09-08T04:35:40;101231.72;;;14.93;88.84
55733;BME280;41637;52.364;9.910;2023-09-08T04:38:07;101226.53;;;14.91;89.53
55733;BME280;41637;52.364;9.910;2023-09-08T04:40:34;101226.44;;;14.99;90.30
55733;BME280;41637;52.364;9.910;2023-09-08T04:43:01;101219.28;;;15.06;90.37
55733;BME280;41637;52.364;9.910;2023-09-08T04:45:28;101224.13;;;15.18;91.28
55733;BME280;41637;52.364;9.910;2023-09-08T04:47:55;101227.78;;;15.38;94.63
55733;BME280;41637;52.364;9.910;2023-09-08T04:50:22;101224.91;;;15.68;94.80
55733;BME280;41637;52.364;9.910;2023-09-08T04:52:49;101221.66;;;16.01;93.27
55733;BME280;41637;52.364;9.910;2023-09-08T04:55:17;101221.34;;;16.17;90.10
55733;BME280;41637;52.364;9.910;2023-09-08T04:57:44;101216.44;;;16.34;89.60
55733;BME280;41637;52.364;9.910;2023-09-08T05:00:11;101225.16;;;16.43;87.61
55733;BME280;41637;52.364;9.910;2023-09-08T05:02:38;101221.63;;;16.49;86.76
55733;BME280;41637;52.364;9.910;2023-09-08T05:05:05;101223.31;;;16.57;85.93
55733;BME280;41637;52.364;9.910;2023-09-08T05:07:33;101213.06;;;16.67;85.75
55733;BME280;41637;52.364;9.910;2023-09-08T05:09:59;101223.97;;;16.79;85.09
55733;BME280;41637;52.364;9.910;2023-09-08T05:12:30;101220.34;;;16.93;84.83
55733;BME280;41637;52.364;9.910;2023-09-08T05:14:56;101219.94;;;17.03;83.57
55733;BME280;41637;52.364;9.910;2023-09-08T05:17:27;101223.25;;;17.05;82.88
55733;BME280;41637;52.364;9.910;2023-09-08T05:19:55;101226.94;;;17.10;82.75
55733;BME280;41637;52.364;9.910;2023-09-08T05:22:22;101224.50;;;17.16;82.40
55733;BME280;41637;52.364;9.910;2023-09-08T05:24:50;101224.69;;;17.21;82.07
55733;BME280;41637;52.364;9.910;2023-09-08T05:27:17;101225.31;;;17.29;82.14
55733;BME280;41637;52.364;9.910;2023-09-08T05:29:44;101220.78;;;17.43;81.89
55733;BME280;41637;52.364;9.910;2023-09-08T05:32:12;101220.34;;;17.60;81.27
55733;BME280;41637;52.364;9.910;2023-09-08T05:34:39;101224.47;;;17.69;80.66
55733;BME280;41637;52.364;9.910;2023-09-08T05:37:05;101220.31;;;17.73;80.00
55733;BME280;41637;52.364;9.910;2023-09-08T05:39:32;101231.59;;;18.08;80.54
55733;BME280;41637;52.364;9.910;2023-09-08T05:42:00;101227.19;;;18.27;78.59
55733;BME280;41637;52.364;9.910;2023-09-08T05:44:27;101229.06;;;18.27;77.76
55733;BME280;41637;52.364;9.910;2023-09-08T05:46:53;101232.19;;;18.24;77.57
55733;BME280;41637;52.364;9.910;2023-09-08T05:49:22;101226.78;;;18.30;78.17
55733;BME280;41637;52.364;9.910;2023-09-08T05:51:49;101222.19;;;18.38;77.93
55733;BME280;41637;52.364;9.910;2023-09-08T05:54:16;101218.88;;;18.42;77.54
55733;BME280;41637;52.364;9.910;2023-09-08T05:56:43;101222.16;;;18.51;77.48
55733;BME280;41637;52.364;9.910;2023-09-08T05:59:11;101218.59;;;18.57;77.21
55733;BME280;41637;52.364;9.910;2023-09-08T06:01:38;101222.28;;;18.63;76.49
55733;BME280;41637;52.364;9.910;2023-09-08T06:04:07;101223.31;;;18.68;76.37
55733;BME280;41637;52.364;9.910;2023-09-08T06:06:34;101220.56;;;18.75;76.42
55733;BME280;41637;52.364;9.910;2023-09-08T06:09:01;101219.91;;;18.86;76.54
55733;BME280;41637;52.364;9.910;2023-09-08T06:11:30;101221.25;;;19.02;76.34
55733;BME280;41637;52.364;9.910;2023-09-08T06:13:57;101218.06;;;19.12;75.58
55733;BME280;41637;52.364;9.910;2023-09-08T06:16:30;101220.88;;;19.24;75.63
55733;BME280;41637;52.364;9.910;2023-09-08T06:18:57;101232.34;;;19.38;75.21
55733;BME280;41637;52.364;9.910;2023-09-08T06:21:24;101227.34;;;19.41;74.66
55733;BME280;41637;52.364;9.910;2023-09-08T06:23:51;101221.84;;;19.54;74.69
55733;BME280;41637;52.364;9.910;2023-09-08T06:26:18;101217.38;;;19.67;74.57
55733;BME280;41637;52.364;9.910;2023-09-08T06:28:45;101222.50;;;19.75;74.25
55733;BME280;41637;52.364;9.910;2023-09-08T06:31:12;101231.09;;;19.84;73.79
55733;BME280;41637;52.364;9.910;2023-09-08T06:33:42;101223.56;;;19.92;73.92
55733;BME280;41637;52.364;9.910;2023-09-08T06:36:09;101215.19;;;20.01;73.79
55733;BME280;41637;52.364;9.910;2023-09-08T06:38:36;101215.47;;;20.11;73.58
55733;BME280;41637;52.364;9.910;2023-09-08T06:41:11;101218.13;;;20.29;73.06
55733;BME280;41637;52.364;9.910;2023-09-08T06:43:38;101221.28;;;20.45;72.88
55733;BME280;41637;52.364;9.910;2023-09-08T06:46:13;101210.94;;;20.60;72.44
55733;BME280;41637;52.364;9.910;2023-09-08T06:48:40;101215.53;;;20.71;71.81
55733;BME280;41637;52.364;9.910;2023-09-08T06:51:07;101213.78;;;20.77;71.40
55733;BME280;41637;52.364;9.910;2023-09-08T06:53:37;101220.66;;;20.91;71.58
55733;BME280;41637;52.364;9.910;2023-09-08T06:56:05;101224.31;;;21.09;70.82
55733;BME280;41637;52.364;9.910;2023-09-08T06:58:32;101219.41;;;21.17;70.33
55733;BME280;41637;52.364;9.910;2023-09-08T07:01:00;101221.16;;;21.24;70.55
55733;BME280;41637;52.364;9.910;2023-09-08T07:03:27;101230.53;;;21.33;70.17
55733;BME280;41637;52.364;9.910;2023-09-08T07:05:55;101227.06;;;21.44;69.89
55733;BME280;41637;52.364;9.910;2023-09-08T07:08:23;101230.59;;;21.56;69.48
55733;BME280;41637;52.364;9.910;2023-09-08T07:10:52;101228.47;;;21.70;69.11
55733;BME280;41637;52.364;9.910;2023-09-08T07:13:20;101229.88;;;21.85;68.72
55733;BME280;41637;52.364;9.910;2023-09-08T07:15:47;101222.31;;;21.98;68.66
55733;BME280;41637;52.364;9.910;2023-09-08T07:18:14;101225.84;;;22.11;68.47
55733;BME280;41637;52.364;9.910;2023-09-08T07:20:46;101221.69;;;22.20;68.02
55733;BME280;41637;52.364;9.910;2023-09-08T07:23:14;101219.81;;;22.32;67.64
55733;BME280;41637;52.364;9.910;2023-09-08T07:25:45;101223.28;;;22.45;67.33
55733;BME280;41637;52.364;9.910;2023-09-08T07:28:12;101230.53;;;22.56;66.69
55733;BME280;41637;52.364;9.910;2023-09-08T07:30:39;101225.97;;;22.73;65.41
55733;BME280;41637;52.364;9.910;2023-09-08T07:33:06;101217.56;;;22.87;64.95
55733;BME280;41637;52.364;9.910;2023-09-08T07:35:37;101224.06;;;23.03;64.49
55733;BME280;41637;52.364;9.910;2023-09-08T07:38:05;101230.47;;;23.13;64.00
55733;BME280;41637;52.364;9.910;2023-09-08T07:40:33;101227.69;;;23.25;64.02
55733;BME280;41637;52.364;9.910;2023-09-08T07:43:01;101228.09;;;23.34;63.48
55733;BME280;41637;52.364;9.910;2023-09-08T07:45:28;101225.03;;;23.47;63.35
55733;BME280;41637;52.364;9.910;2023-09-08T07:47:54;101224.69;;;23.60;63.35
55733;BME280;41637;52.364;9.910;2023-09-08T07:50:25;101226.16;;;23.68;62.65
55733;BME280;41637;52.364;9.910;2023-09-08T07:52:55;101216.22;;;23.74;62.28
55733;BME280;41637;52.364;9.910;2023-09-08T07:55:23;101214.16;;;23.81;62.22
55733;BME280;41637;52.364;9.910;2023-09-08T07:57:50;101210.22;;;23.89;61.96
55733;BME280;41637;52.364;9.910;2023-09-08T08:00:18;101210.31;;;23.99;62.10
55733;BME280;41637;52.364;9.910;2023-09-08T08:02:47;101213.97;;;24.10;61.79
55733;BME280;41637;52.364;9.910;2023-09-08T08:05:15;101214.91;;;24.20;61.29
55733;BME280;41637;52.364;9.910;2023-09-08T08:07:43;101217.50;;;24.32;60.94
55733;BME280;41637;52.364;9.910;2023-09-08T08:10:11;101217.88;;;24.41;60.44
55733;BME280;41637;52.364;9.910;2023-09-08T08:12:39;101220.47;;;24.53;60.25
55733;BME280;41637;52.364;9.910;2023-09-08T08:15:07;101226.00;;;24.63;60.05
55733;BME280;41637;52.364;9.910;2023-09-08T08:17:34;101219.59;;;24.74;59.83
55733;BME280;41637;52.364;9.910;2023-09-08T08:20:04;101211.00;;;24.82;59.20
55733;BME280;41637;52.364;9.910;2023-09-08T08:22:36;101222.19;;;24.91;58.74
55733;BME280;41637;52.364;9.910;2023-09-08T08:25:03;101218.22;;;25.04;58.54
55733;BME280;41637;52.364;9.910;2023-09-08T08:27:30;101216.66;;;25.13;58.36
55733;BME280;41637;52.364;9.910;2023-09-08T08:29:58;101219.81;;;25.27;58.20
55733;BME280;41637;52.364;9.910;2023-09-08T08:32:28;101213.59;;;25.37;57.38
55733;BME280;41637;52.364;9.910;2023-09-08T08:34:55;101223.19;;;25.50;57.28
55733;BME280;41637;52.364;9.910;2023-09-08T08:37:23;101217.00;;;25.59;56.83
55733;BME280;41637;52.364;9.910;2023-09-08T08:39:50;101219.75;;;25.64;56.52
55733;BME280;41637;52.364;9.910;2023-09-08T08:42:17;101214.06;;;25.71;56.05
55733;BME280;41637;52.364;9.910;2023-09-08T08:44:47;101221.72;;;25.79;55.67
55733;BME280;41637;52.364;9.910;2023-09-08T08:47:14;101219.88;;;25.85;54.93
55733;BME280;41637;52.364;9.910;2023-09-08T08:49:43;101220.47;;;25.92;54.73
55733;BME280;41637;52.364;9.910;2023-09-08T08:52:14;101212.34;;;26.02;54.70
55733;BME280;41637;52.364;9.910;2023-09-08T08:54:41;101215.38;;;26.11;54.54
55733;BME280;41637;52.364;9.910;2023-09-08T08:57:11;101210.25;;;26.20;54.07
55733;BME280;41637;52.364;9.910;2023-09-08T08:59:38;101205.38;;;26.27;53.50
55733;BME280;41637;52.364;9.910;2023-09-08T09:02:05;101205.69;;;26.36;53.55
55733;BME280;41637;52.364;9.910;2023-09-08T09:04:32;101203.50;;;26.43;53.54
55733;BME280;41637;52.364;9.910;2023-09-08T09:06:59;101199.44;;;26.51;52.84
55733;BME280;41637;52.364;9.910;2023-09-08T09:09:28;101202.16;;;26.56;52.47
55733;BME280;41637;52.364;9.910;2023-09-08T09:11:55;101196.22;;;26.64;52.55
55733;BME280;41637;52.364;9.910;2023-09-08T09:14:22;101192.41;;;26.70;51.10
55733;BME280;41637;52.364;9.910;2023-09-08T09:16:50;101188.59;;;26.81;51.12
55733;BME280;41637;52.364;9.910;2023-09-08T09:19:19;101182.06;;;26.88;51.23
55733;BME280;41637;52.364;9.910;2023-09-08T09:21:52;101190.78;;;27.00;51.01
55733;BME280;41637;52.364;9.910;2023-09-08T09:24:41;101189.16;;;27.04;50.54
55733;BME280;41637;52.364;9.910;2023-09-08T09:27:11;101193.50;;;27.10;50.38
55733;BME280;41637;52.364;9.910;2023-09-08T09:29:49;101183.16;;;27.17;49.99
55733;BME280;41637;52.364;9.910;2023-09-08T09:32:23;101187.25;;;27.25;49.88
55733;BME280;41637;52.364;9.910;2023-09-08T09:34:53;101173.63;;;27.35;49.68
55733;BME280;41637;52.364;9.910;2023-09-08T09:37:21;101189.66;;;27.47;49.33
55733;BME280;41637;52.364;9.910;2023-09-08T09:39:53;101186.63;;;27.59;48.43
55733;BME280;41637;52.364;9.910;2023-09-08T09:42:21;101183.03;;;27.69;48.24
55733;BME280;41637;52.364;9.910;2023-09-08T09:44:48;101180.56;;;27.82;48.39
55733;BME280;41637;52.364;9.910;2023-09-08T09:47:16;101185.16;;;27.92;48.53
55733;BME280;41637;52.364;9.910;2023-09-08T09:49:47;101177.47;;;28.04;47.86
55733;BME280;41637;52.364;9.910;2023-09-08T09:52:22;101186.41;;;28.15;47.30
55733;BME280;41637;52.364;9.910;2023-09-08T09:54:58;101183.13;;;28.18;46.53
55733;BME280;41637;52.364;9.910;2023-09-08T09:57:26;101178.50;;;28.19;46.76
55733;BME280;41637;52.364;9.910;2023-09-08T09:59:54;101177.38;;;28.25;46.12
55733;BME280;41637;52.364;9.910;2023-09-08T10:02:22;101179.72;;;28.42;47.15
55733;BME280;41637;52.364;9.910;2023-09-08T10:04:53;101176.84;;;28.62;46.97
55733;BME280;41637;52.364;9.910;2023-09-08T10:07:20;101166.38;;;28.80;47.91
55733;BME280;41637;52.364;9.910;2023-09-08T10:09:47;101157.44;;;28.98;47.42
55733;BME280;41637;52.364;9.910;2023-09-08T10:12:15;101159.25;;;29.13;47.10
55733;BME280;41637;52.364;9.910;2023-09-08T10:14:43;101157.97;;;29.30;46.06
55733;BME280;41637;52.364;9.910;2023-09-08T10:17:18;101162.22;;;29.41;46.41
55733;BME280;41637;52.364;9.910;2023-09-08T10:19:48;101167.00;;;29.54;46.22
55733;BME280;41637;52.364;9.910;2023-09-08T10:22:20;101161.47;;;29.59;45.93
55733;BME280;41637;52.364;9.910;2023-09-08T10:24:54;101168.50;;;29.65;43.86
55733;BME280;41637;52.364;9.910;2023-09-08T10:27:22;101159.97;;;29.72;44.94
55733;BME280;41637;52.364;9.910;2023-09-08T10:29:54;101159.06;;;29.82;44.31
55733;BME280;41637;52.364;9.910;2023-09-08T10:32:22;101156.69;;;29.94;44.50
55733;BME280;41637;52.364;9.910;2023-09-08T10:34:49;101152.25;;;29.98;44.94
55733;BME280;41637;52.364;9.910;2023-09-08T10:37:26;101156.53;;;30.04;43.56
55733;BME280;41637;52.364;9.910;2023-09-08T10:39:56;101161.34;;;30.13;43.41
55733;BME280;41637;52.364;9.910;2023-09-08T10:42:43;101152.78;;;30.19;42.17
55733;BME280;41637;52.364;9.910;2023-09-08T10:45:18;101153.56;;;30.20;41.30
55733;BME280;41637;52.364;9.910;2023-09-08T10:50:19;101151.47;;;30.36;41.92
55733;BME280;41637;52.364;9.910;2023-09-08T10:55:39;101145.75;;;30.51;40.23
55733;BME280;41637;52.364;9.910;2023-09-08T10:58:09;101159.50;;;30.65;41.15
55733;BME280;41637;52.364;9.910;2023-09-08T11:00:44;101142.06;;;30.75;39.49
55733;BME280;41637;52.364;9.910;2023-09-08T11:03:12;101140.66;;;30.77;40.07
55733;BME280;41637;52.364;9.910;2023-09-08T11:05:41;101153.25;;;30.78;38.20
55733;BME280;41637;52.364;9.910;2023-09-08T11:08:08;101144.38;;;30.86;38.35
55733;BME280;41637;52.364;9.910;2023-09-08T11:10:36;101147.81;;;30.92;37.35
55733;BME280;41637;52.364;9.910;2023-09-08T11:13:04;101149.66;;;30.97;37.14
55733;BME280;41637;52.364;9.910;2023-09-08T11:15:31;101139.53;;;31.11;36.87
55733;BME280;41637;52.364;9.910;2023-09-08T11:18:04;101142.59;;;31.23;36.94
55733;BME280;41637;52.364;9.910;2023-09-08T11:20:31;101144.03;;;31.35;36.44
55733;BME280;41637;52.364;9.910;2023-09-08T11:22:58;101145.47;;;31.46;37.37
55733;BME280;41637;52.364;9.910;2023-09-08T11:25:26;101132.97;;;31.54;34.75
55733;BME280;41637;52.364;9.910;2023-09-08T11:27:54;101131.31;;;31.66;36.06
55733;BME280;41637;52.364;9.910;2023-09-08T11:30:21;101142.50;;;31.84;35.41
55733;BME280;41637;52.364;9.910;2023-09-08T11:32:48;101134.34;;;31.93;33.96
55733;BME280;41637;52.364;9.910;2023-09-08T11:35:14;101123.34;;;32.06;34.29
55733;BME280;41637;52.364;9.910;2023-09-08T11:37:42;101130.97;;;32.32;33.09
55733;BME280;41637;52.364;9.910;2023-09-08T11:40:10;101121.63;;;32.56;33.48
55733;BME280;41637;52.364;9.910;2023-09-08T11:42:43;101123.72;;;32.81;32.95
55733;BME280;41637;52.364;9.910;2023-09-08T11:45:15;101115.25;;;33.00;33.01
55733;BME280;41637;52.364;9.910;2023-09-08T11:47:48;101110.47;;;33.15;32.61
55733;BME280;41637;52.364;9.910;2023-09-08T11:50:19;101105.53;;;33.34;32.72
55733;BME280;41637;52.364;9.910;2023-09-08T11:52:48;101116.09;;;33.49;32.32
55733;BME280;41637;52.364;9.910;2023-09-08T11:55:15;101112.13;;;33.64;31.56
55733;BME280;41637;52.364;9.910;2023-09-08T11:57:45;101111.47;;;33.85;31.51
55733;BME280;41637;52.364;9.910;2023-09-08T12:00:13;101113.59;;;34.05;30.65
55733;BME280;41637;52.364;9.910;2023-09-08T12:02:44;101101.78;;;34.31;31.20
55733;BME280;41637;52.364;9.910;2023-09-08T12:05:13;101099.78;;;34.58;30.15
55733;BME280;41637;52.364;9.910;2023-09-08T12:07:40;101113.16;;;34.85;30.02
55733;BME280;41637;52.364;9.910;2023-09-08T12:10:11;101107.84;;;35.27;30.19
55733;BME280;41637;52.364;9.910;2023-09-08T12:12:50;101107.59;;;35.71;29.20
55733;BME280;41637;52.364;9.910;2023-09-08T12:18:07;101104.94;;;36.71;28.44
55733;BME280;41637;52.364;9.910;2023-09-08T12:20:35;101099.66;;;37.03;28.01
55733;BME280;41637;52.364;9.910;2023-09-08T12:23:16;101095.88;;;37.20;26.21
55733;BME280;41637;52.364;9.910;2023-09-08T12:25:52;101099.66;;;37.27;26.67
55733;BME280;41637;52.364;9.910;2023-09-08T12:28:21;101098.13;;;37.54;26.24
55733;BME280;41637;52.364;9.910;2023-09-08T12:30:51;101101.44;;;37.85;26.60
55733;BME280;41637;52.364;9.910;2023-09-08T12:33:20;101089.56;;;38.12;25.96
55733;BME280;41637;52.364;9.910;2023-09-08T12:35:48;101088.72;;;38.40;25.66
55733;BME280;41637;52.364;9.910;2023-09-08T12:38:15;101092.56;;;38.64;24.75
55733;BME280;41637;52.364;9.910;2023-09-08T12:40:42;101088.66;;;38.97;25.44
55733;BME280;41637;52.364;9.910;2023-09-08T12:43:08;101085.38;;;39.26;24.12
55733;BME280;41637;52.364;9.910;2023-09-08T12:45:53;101078.88;;;39.54;23.19
55733;BME280;41637;52.364;9.910;2023-09-08T12:48:20;101088.84;;;39.74;23.67
55733;BME280;41637;52.364;9.910;2023-09-08T12:50:48;101084.75;;;39.88;23.03
55733;BME280;41637;52.364;9.910;2023-09-08T12:53:16;101081.19;;;39.87;22.95
55733;BME280;41637;52.364;9.910;2023-09-08T12:55:47;101076.56;;;39.95;22.76
55733;BME280;41637;52.364;9.910;2023-09-08T12:58:14;101079.94;;;40.04;23.35
55733;BME280;41637;52.364;9.910;2023-09-08T13:00:43;101078.06;;;40.31;23.32
55733;BME280;41637;52.364;9.910;2023-09-08T13:03:10;101072.16;;;40.56;22.42
55733;BME280;41637;52.364;9.910;2023-09-08T13:05:36;101070.41;;;40.71;22.07
55733;BME280;41637;52.364;9.910;2023-09-08T13:08:06;101065.66;;;40.94;21.67